PAYA/YAK METAR and TAF weather

Enter ICAO airport designator
Station Type Date Time Source
PAYA METAR 2021/09/24 00:53 UTC NOAA

PAYA 240053Z AUTO 12021G34KT 1SM RA BR OVC007 11/11 A2941 RMK AO2 PK WND 12035/0040 SLP961 P0016 T01110106 TSNO RVRNO


Station Type Date Time Source
PAYA Decoded METAR 2021/09/24 00:53 UTC NOAA

YAKUTAT AIRPORT, AK, United States (PAYA) 59-30N 139-40W 9M
Sep 23, 2021 - 08:53 PM EDT / 2021.09.24 0053 UTC
Wind: from the ESE (120 degrees) at 24 MPH (21 KT) gusting to 39 MPH (34 KT):0
Visibility: 1 mile(s):0
Sky conditions: overcast
Weather: rain; mist
Precipitation last hour: 0.16 inches
Temperature: 52.0 F (11.1 C)
Dew Point: 51.1 F (10.6 C)
Relative Humidity: 96%
Pressure (altimeter): 29.41 in. Hg (995 hPa)
ob: PAYA 240053Z AUTO 12021G34KT 1SM RA BR OVC007 11/11 A2941 RMK AO2 PK WND 12035/0040 SLP961 P0016 T01110106 TSNO RVRNO
cycle: 1

Station Type Date Time Source
PAYA TAF 2021/09/23 21:10 UTC NOAA

TAF
AMD PAYA 232107Z 2321/2418 11010G20KT 6SM -RA BR OVC015 WS020/13040KT
FM240000 12015G25KT 4SM +SHRA BR OVC008 WS020/17045KT
FM240500 12013G23KT 5SM -SHRA BR OVC015 WS020/15040KT
FM240800 15010KT 6SM -SHRA BR FEW015 OVC025 WS020/16040KT
AMD LTD TO CLD VIS AND WIND

Example: see airport list